HR-0010 weather

Mirkovac Airstrip
Osijek-Baranja County, Croatia

Public forecast

Using degrees Celsius for public forecast. Weather courtesy of forecast.io.

Closest aviation weather report (METAR) to Mirkovac Airstrip

Closest report is Osijek Airport, 16.1 nm (29.9 km) S. Retrieved 2020/07/05 11:00 UTC (16 minutes ago):

LDOS 051100Z VRB04KT CAVOK 28/13 Q1016

Closest aviation forecast (TAF) to Mirkovac Airstrip

Closest forecast is Osijek Airport, 16.1 nm (29.9 km) S. Retrieved 2020/07/05 06:27 UTC (5 hours ago):

TAF LDOS 050525Z 0506/0606 33006KT CAVOK TX31/0513Z TN17/0603Z